Terminal Aerodrome Forecast
Issued by NWS Quad Cities IA IL

Home | Current Version | Previous Version | Text Only | Print | Product List | Glossary Off
Versions: 1 2 3 4 5 6 7 8 9 10 11 12 13 14 15 16

892
FTUS43 KDVN 231720
TAFDBQ
TAF
KDBQ 231720Z 2318/2418 29006KT P6SM FEW250
     FM232300 24005KT P6SM SCT250
     FM240200 20008KT P6SM SCT250
     FM241600 20018G24KT P6SM SCT250=

USA.gov is the U.S. government's official web portal to all federal, state and local government web resources and services.